createdAt,value
2023-05-16T00:02:19.755Z,3.10
2023-05-16T00:04:52.180Z,2.60
2023-05-16T00:07:24.407Z,2.90
2023-05-16T00:09:56.842Z,2.70
2023-05-16T00:12:29.493Z,2.70
2023-05-16T00:15:02.021Z,2.60
2023-05-16T00:17:35.754Z,3.30
2023-05-16T00:20:12.078Z,3.70
2023-05-16T00:22:44.444Z,3.80
2023-05-16T00:25:16.596Z,3.20
2023-05-16T00:27:48.822Z,3.40
2023-05-16T00:30:21.161Z,2.60
2023-05-16T00:32:53.452Z,3.30
2023-05-16T00:35:26.048Z,3.50
2023-05-16T00:37:58.325Z,3.40
2023-05-16T00:40:30.743Z,3.30
2023-05-16T00:43:03.079Z,3.60
2023-05-16T00:45:35.234Z,3.60
2023-05-16T00:48:09.502Z,2.90
2023-05-16T00:50:41.952Z,3.20
2023-05-16T00:53:14.793Z,2.50
2023-05-16T00:55:47.061Z,3.00
2023-05-16T00:58:19.321Z,3.60
2023-05-16T01:00:51.961Z,3.40
2023-05-16T01:03:24.526Z,3.20
2023-05-16T01:05:57.264Z,3.30
2023-05-16T01:08:29.413Z,3.50
2023-05-16T01:11:09.589Z,3.50
2023-05-16T01:13:51.188Z,3.90
2023-05-16T01:16:34.892Z,3.90
2023-05-16T01:19:16.631Z,4.30
2023-05-16T01:22:02.490Z,3.20
2023-05-16T01:24:44.388Z,4.20
2023-05-16T01:27:17.997Z,3.60
2023-05-16T01:29:50.262Z,2.70
2023-05-16T01:32:22.924Z,3.70
2023-05-16T01:34:56.155Z,2.80
2023-05-16T01:37:37.609Z,4.00
2023-05-16T01:40:15.018Z,3.90
2023-05-16T01:42:49.895Z,2.30
2023-05-16T01:45:28.362Z,3.10
2023-05-16T01:48:06.704Z,3.30
2023-05-16T01:50:42.338Z,3.20
2023-05-16T01:55:51.496Z,3.60
2023-05-16T01:58:27.633Z,3.40
2023-05-16T02:01:03.836Z,3.20
2023-05-16T02:03:36.572Z,3.60
2023-05-16T02:06:09.149Z,4.20
2023-05-16T02:08:41.271Z,3.50
2023-05-16T02:11:13.488Z,4.20
2023-05-16T02:13:45.887Z,3.50
2023-05-16T02:16:18.115Z,3.70
2023-05-16T02:18:50.258Z,2.90
2023-05-16T02:21:22.656Z,3.50
2023-05-16T02:23:54.866Z,3.10
2023-05-16T02:26:27.030Z,4.00
2023-05-16T02:28:59.297Z,4.30
2023-05-16T02:31:32.991Z,3.60
2023-05-16T02:34:05.590Z,3.80
2023-05-16T02:36:37.807Z,3.20
2023-05-16T02:39:10.367Z,4.00
2023-05-16T02:41:42.653Z,4.20
2023-05-16T02:44:14.848Z,3.80
2023-05-16T02:46:47.185Z,3.10
2023-05-16T02:49:19.649Z,3.90
2023-05-16T02:51:52.110Z,3.20
2023-05-16T02:54:24.288Z,4.20
2023-05-16T02:56:56.581Z,4.40
2023-05-16T02:59:28.683Z,3.60
2023-05-16T03:02:00.957Z,5.10
2023-05-16T03:04:33.619Z,4.50
2023-05-16T03:07:06.072Z,4.40
2023-05-16T03:09:38.461Z,3.30
2023-05-16T03:12:11.101Z,4.50
2023-05-16T03:14:43.469Z,3.90
2023-05-16T03:17:15.782Z,4.10
2023-05-16T03:19:48.027Z,4.20
2023-05-16T03:22:20.727Z,4.20
2023-05-16T03:24:53.053Z,4.40
2023-05-16T03:27:26.388Z,5.00
2023-05-16T03:29:58.619Z,4.10
2023-05-16T03:32:30.882Z,5.00
2023-05-16T03:35:03.610Z,4.70
2023-05-16T03:37:36.702Z,5.10
2023-05-16T03:40:11.434Z,3.50
2023-05-16T03:42:43.705Z,4.40
2023-05-16T03:45:15.907Z,4.70
2023-05-16T03:47:49.725Z,4.70
2023-05-16T03:50:22.131Z,5.00
2023-05-16T03:52:54.521Z,4.10
2023-05-16T03:55:26.961Z,3.20
2023-05-16T03:57:59.416Z,5.00
2023-05-16T04:00:31.776Z,4.40
2023-05-16T04:03:04.309Z,4.80
2023-05-16T04:05:36.772Z,4.50
2023-05-16T04:08:09.282Z,4.40
2023-05-16T04:10:41.564Z,4.70
2023-05-16T04:13:13.844Z,6.00
2023-05-16T04:15:46.159Z,11.50
2023-05-16T04:18:19.576Z,6.50
2023-05-16T04:20:51.698Z,6.70
2023-05-16T04:23:23.818Z,4.30
2023-05-16T04:25:56.514Z,4.80
2023-05-16T04:28:28.780Z,7.60
2023-05-16T04:31:00.962Z,5.90
2023-05-16T04:33:33.247Z,4.00
2023-05-16T04:36:06.486Z,4.70
2023-05-16T04:38:38.874Z,5.70
2023-05-16T04:41:11.217Z,5.40
2023-05-16T04:43:43.568Z,5.30
2023-05-16T04:46:15.944Z,6.30
2023-05-16T04:48:48.113Z,5.80
2023-05-16T04:51:20.447Z,5.60
2023-05-16T04:53:52.456Z,4.10
2023-05-16T04:56:24.643Z,7.40
2023-05-16T04:58:56.829Z,4.30
2023-05-16T05:01:29.104Z,5.10
2023-05-16T05:04:01.282Z,3.90
2023-05-16T05:06:33.585Z,5.80
2023-05-16T05:09:07.054Z,4.80
2023-05-16T05:11:39.396Z,4.60
2023-05-16T05:14:11.593Z,4.70
2023-05-16T05:16:43.872Z,4.90
2023-05-16T05:19:16.315Z,4.90
2023-05-16T05:21:48.720Z,4.90
2023-05-16T05:24:21.044Z,4.80
2023-05-16T05:26:53.884Z,4.50
2023-05-16T05:29:26.306Z,4.40
2023-05-16T05:31:58.559Z,4.10
2023-05-16T05:34:30.889Z,5.90
2023-05-16T05:37:03.175Z,6.20
2023-05-16T05:39:35.487Z,4.10
2023-05-16T05:42:08.376Z,5.60
2023-05-16T05:44:40.830Z,3.80
2023-05-16T05:47:13.193Z,4.60
2023-05-16T05:49:46.197Z,5.40
2023-05-16T05:52:18.442Z,4.90
2023-05-16T05:54:50.864Z,4.20
2023-05-16T05:57:22.860Z,4.80
2023-05-16T05:59:55.050Z,4.50
2023-05-16T06:02:27.306Z,4.90
2023-05-16T06:05:00.124Z,4.90
2023-05-16T06:07:32.325Z,3.90
2023-05-16T06:10:05.581Z,3.90
2023-05-16T06:12:37.790Z,4.20
2023-05-16T06:15:12.152Z,4.40
2023-05-16T06:17:44.439Z,4.40
2023-05-16T06:20:17.104Z,4.10
2023-05-16T06:22:49.492Z,3.00
2023-05-16T06:25:21.776Z,4.20
2023-05-16T06:27:54.003Z,4.50
2023-05-16T06:30:26.113Z,4.40
2023-05-16T06:32:58.321Z,4.70
2023-05-16T06:35:30.711Z,3.70
2023-05-16T06:38:02.983Z,5.80
2023-05-16T06:40:35.238Z,4.10
2023-05-16T06:43:07.831Z,6.10
2023-05-16T06:45:40.101Z,4.40
2023-05-16T06:48:12.431Z,4.70
2023-05-16T06:50:45.094Z,5.20
2023-05-16T09:21:15.342Z,4.60
2023-05-16T09:23:44.584Z,3.50
2023-05-16T09:26:14.453Z,3.30
2023-05-16T09:28:44.536Z,2.90
2023-05-16T09:31:26.070Z,2.70
2023-05-16T09:33:57.252Z,3.20
2023-05-16T09:36:27.220Z,3.10
2023-05-16T09:38:56.517Z,4.30
2023-05-16T09:41:25.593Z,3.20
2023-05-16T09:43:55.463Z,3.10
2023-05-16T09:46:27.676Z,3.70
2023-05-16T09:48:56.846Z,3.40
2023-05-16T09:51:26.614Z,3.70
2023-05-16T09:53:58.461Z,3.50
2023-05-16T09:56:27.904Z,3.10
2023-05-16T09:58:56.971Z,4.00
2023-05-16T10:01:26.362Z,2.90
2023-05-16T10:03:55.668Z,2.90
2023-05-16T10:06:25.974Z,3.60
2023-05-16T10:08:55.560Z,3.40
2023-05-16T10:11:25.095Z,3.60
2023-05-16T10:13:54.113Z,2.70
2023-05-16T10:16:24.066Z,3.30
2023-05-16T10:18:54.065Z,3.10
2023-05-16T10:21:25.909Z,3.40
2023-05-16T10:23:59.826Z,3.30
2023-05-16T10:26:29.778Z,2.70
2023-05-16T10:29:00.348Z,3.70
2023-05-16T10:31:30.595Z,4.50
2023-05-16T10:34:00.249Z,3.20
2023-05-16T10:36:30.798Z,3.10
2023-05-16T10:39:00.811Z,3.20
2023-05-16T10:41:30.192Z,3.70
2023-05-16T10:43:59.733Z,3.00
2023-05-16T10:46:29.727Z,4.00
2023-05-16T10:48:59.129Z,2.80
2023-05-16T10:51:39.156Z,3.40
2023-05-16T10:54:10.791Z,3.40
2023-05-16T10:56:40.192Z,3.20
2023-05-16T10:59:24.758Z,2.50
2023-05-16T11:01:57.441Z,3.00
2023-05-16T11:04:48.334Z,2.10
2023-05-16T11:07:19.282Z,4.80
2023-05-16T11:10:03.041Z,2.90
2023-05-16T11:12:42.389Z,2.80
2023-05-16T11:15:23.250Z,1.90
2023-05-16T11:18:03.820Z,3.20
2023-05-16T11:20:34.372Z,3.20
2023-05-16T11:23:25.367Z,2.40
2023-05-16T11:25:57.251Z,3.20
2023-05-16T11:28:28.054Z,2.60
2023-05-16T11:30:59.410Z,3.80
2023-05-16T11:33:33.815Z,4.10
2023-05-16T11:36:15.303Z,2.80
2023-05-16T11:38:45.501Z,2.20
2023-05-16T11:41:17.124Z,4.00
2023-05-16T11:43:46.571Z,2.00
2023-05-16T11:46:16.675Z,3.40
2023-05-16T11:48:46.858Z,3.00
2023-05-16T11:51:19.683Z,3.10
2023-05-16T11:53:49.857Z,1.90
2023-05-16T11:56:21.736Z,2.80
2023-05-16T11:58:51.298Z,2.10
2023-05-16T12:01:20.086Z,2.30
2023-05-16T12:03:56.964Z,3.10
2023-05-16T12:06:26.255Z,1.90
2023-05-16T12:08:55.121Z,3.20
2023-05-16T12:11:25.371Z,4.20
2023-05-16T12:13:54.470Z,3.50
2023-05-16T12:16:23.778Z,3.30
2023-05-16T12:18:52.952Z,3.00
2023-05-16T12:21:21.889Z,2.90
2023-05-16T12:23:54.996Z,2.00
2023-05-16T12:26:27.070Z,2.50
2023-05-16T12:28:59.988Z,2.00
2023-05-16T12:31:32.182Z,2.10
2023-05-16T12:34:02.038Z,3.00
2023-05-16T12:36:34.353Z,2.80
2023-05-16T12:39:04.231Z,2.90
2023-05-16T12:41:33.419Z,2.40
2023-05-16T12:44:13.830Z,3.30
2023-05-16T12:46:45.083Z,2.20
2023-05-16T12:49:14.617Z,2.80
2023-05-16T12:51:50.774Z,3.10
2023-05-16T12:54:22.128Z,3.40
2023-05-16T12:56:51.252Z,2.60
2023-05-16T12:59:20.429Z,3.60
2023-05-16T13:01:50.359Z,3.20
2023-05-16T13:04:20.309Z,3.10
2023-05-16T13:06:59.333Z,2.50
2023-05-16T13:09:32.496Z,3.30
2023-05-16T13:12:02.083Z,1.90
2023-05-16T13:14:31.140Z,2.70
2023-05-16T13:17:00.207Z,3.20
2023-05-16T13:19:31.204Z,3.70
2023-05-16T13:22:00.318Z,3.50
2023-05-16T13:24:29.280Z,3.40
2023-05-16T13:26:59.051Z,2.60
2023-05-16T13:29:27.998Z,3.00
2023-05-16T13:31:57.269Z,2.40
2023-05-16T13:34:26.273Z,3.00
2023-05-16T13:36:55.270Z,2.50
2023-05-16T13:39:24.365Z,2.60
2023-05-16T13:41:54.544Z,2.50
2023-05-16T13:44:23.888Z,3.00
2023-05-16T13:46:52.855Z,3.60
2023-05-16T13:49:21.829Z,4.00
2023-05-16T13:51:51.856Z,3.90
2023-05-16T13:54:22.273Z,3.40
2023-05-16T13:56:51.349Z,2.70
2023-05-16T13:59:31.996Z,3.30
2023-05-16T14:02:09.362Z,2.30
2023-05-16T14:04:38.466Z,4.00
2023-05-16T14:07:07.342Z,2.30
2023-05-16T14:09:38.785Z,4.10
2023-05-16T14:12:08.935Z,3.00
2023-05-16T14:14:39.532Z,2.90
2023-05-16T14:17:08.591Z,2.60
2023-05-16T14:19:37.566Z,2.50
2023-05-16T14:22:07.650Z,2.80
2023-05-16T14:24:36.455Z,2.00
2023-05-16T14:27:06.464Z,3.60
2023-05-16T14:29:35.537Z,5.50
2023-05-16T14:32:05.088Z,2.60
2023-05-16T14:34:34.293Z,2.80
2023-05-16T14:37:03.499Z,3.20
2023-05-16T14:39:32.521Z,2.60
2023-05-16T14:42:01.422Z,2.00
2023-05-16T14:44:30.930Z,2.50
2023-05-16T14:47:00.086Z,3.90
2023-05-16T14:49:29.099Z,2.10
2023-05-16T14:51:58.168Z,3.90
2023-05-16T14:54:27.179Z,2.80
2023-05-16T14:56:56.288Z,2.70
2023-05-16T14:59:25.583Z,2.70
2023-05-16T15:01:54.726Z,2.60
2023-05-16T15:04:23.772Z,3.20
2023-05-16T15:06:52.726Z,3.30
2023-05-16T15:09:21.754Z,3.70
2023-05-16T15:11:50.795Z,2.60
2023-05-16T15:14:20.048Z,3.60
2023-05-16T15:16:49.275Z,3.80
2023-05-16T15:19:18.261Z,2.00
2023-05-16T15:21:47.279Z,2.90
2023-05-16T15:24:16.721Z,2.70
2023-05-16T15:26:45.920Z,2.80
2023-05-16T15:29:14.905Z,2.80
2023-05-16T15:31:44.069Z,2.20
2023-05-16T15:34:13.115Z,2.20
2023-05-16T15:36:42.190Z,4.30
2023-05-16T15:39:11.290Z,2.90
2023-05-16T15:42:01.021Z,2.40
2023-05-16T15:44:29.244Z,4.40
2023-05-16T15:46:58.300Z,3.20
2023-05-16T15:49:27.572Z,2.50
2023-05-16T15:51:56.538Z,3.00
2023-05-16T15:54:25.737Z,2.20
2023-05-16T15:56:54.928Z,4.60
2023-05-16T15:59:24.559Z,3.10
2023-05-16T16:01:53.737Z,2.50
2023-05-16T16:04:23.769Z,2.80
2023-05-16T16:06:52.884Z,2.50
2023-05-16T16:09:21.886Z,2.30
2023-05-16T16:11:55.475Z,3.60
2023-05-16T16:14:25.348Z,2.50
2023-05-16T16:16:54.413Z,2.80
2023-05-16T16:19:23.659Z,2.90
2023-05-16T16:21:52.918Z,2.60
2023-05-16T16:24:22.137Z,1.80
2023-05-16T16:26:51.397Z,3.20
2023-05-16T16:29:20.336Z,2.20
2023-05-16T16:31:49.378Z,2.60
2023-05-16T16:34:20.947Z,2.30
2023-05-16T16:36:51.615Z,4.00
2023-05-16T16:39:20.561Z,2.70
2023-05-16T16:41:49.705Z,3.40
2023-05-16T16:44:20.333Z,2.40
2023-05-16T16:46:49.823Z,2.20
2023-05-16T16:49:18.975Z,2.50
2023-05-16T16:51:49.484Z,2.50
2023-05-16T16:54:18.445Z,3.00
2023-05-16T16:56:48.949Z,2.00
2023-05-16T16:59:18.199Z,1.60
2023-05-16T17:01:47.510Z,2.50
2023-05-16T17:04:16.523Z,2.50
2023-05-16T17:06:47.822Z,1.70
2023-05-16T17:09:19.112Z,2.40
2023-05-16T17:11:48.248Z,2.80
2023-05-16T17:14:17.381Z,4.00
2023-05-16T17:16:46.550Z,2.90
2023-05-16T17:19:15.631Z,2.60
2023-05-16T17:21:49.974Z,3.20
2023-05-16T17:24:19.130Z,4.10
2023-05-16T17:26:48.371Z,4.00
2023-05-16T17:29:17.595Z,3.30
2023-05-16T17:31:46.668Z,3.90
2023-05-16T17:34:15.575Z,2.90
2023-05-16T17:36:44.785Z,3.20
2023-05-16T17:39:14.423Z,3.30
2023-05-16T17:41:43.392Z,4.30
2023-05-16T17:44:12.412Z,5.00
2023-05-16T17:46:42.088Z,5.50
2023-05-16T17:49:11.138Z,4.10
2023-05-16T17:51:48.056Z,3.80
2023-05-16T17:54:18.218Z,4.10
2023-05-16T17:56:48.102Z,4.70
2023-05-16T17:59:17.689Z,3.80
2023-05-16T18:01:46.967Z,4.10
2023-05-16T18:04:17.603Z,5.00
2023-05-16T18:06:47.811Z,4.30
2023-05-16T18:09:16.860Z,5.10
2023-05-16T18:11:45.980Z,5.00
2023-05-16T18:14:15.354Z,5.30
2023-05-16T18:16:44.532Z,6.60
2023-05-16T18:19:13.681Z,4.00
2023-05-16T18:21:44.492Z,5.30
2023-05-16T18:24:13.567Z,3.20
2023-05-16T18:26:43.761Z,4.30
2023-05-16T18:29:12.736Z,3.40
2023-05-16T18:31:41.969Z,5.90
2023-05-16T18:34:12.012Z,4.00
2023-05-16T18:36:40.982Z,5.60
2023-05-16T18:39:10.707Z,5.40
2023-05-16T18:41:40.358Z,6.00
2023-05-16T18:44:09.649Z,4.10
2023-05-16T18:46:38.655Z,4.70
2023-05-16T18:49:07.743Z,4.00
2023-05-16T18:51:36.855Z,3.90
2023-05-16T18:54:05.853Z,4.60
2023-05-16T18:56:35.441Z,4.50
2023-05-16T18:59:04.381Z,6.10
2023-05-16T19:01:33.924Z,4.40
2023-05-16T19:04:03.468Z,6.20
2023-05-16T19:06:32.496Z,5.30
2023-05-16T19:09:01.789Z,4.20
2023-05-16T19:11:30.926Z,4.30
2023-05-16T19:13:59.955Z,7.20
2023-05-16T19:16:28.997Z,7.30
2023-05-16T19:18:58.042Z,4.20
2023-05-16T19:21:27.662Z,6.10
2023-05-16T19:23:56.843Z,7.30
2023-05-16T19:26:26.011Z,4.70
2023-05-16T19:28:55.264Z,4.70
2023-05-16T19:31:24.549Z,4.70
2023-05-16T19:33:53.525Z,4.50
2023-05-16T19:36:22.500Z,6.10
2023-05-16T19:38:51.536Z,3.90
2023-05-16T19:41:21.462Z,6.10
2023-05-16T19:43:50.635Z,5.40
2023-05-16T19:46:19.779Z,3.80
2023-05-16T19:48:49.158Z,6.00
2023-05-16T19:51:29.508Z,4.90
2023-05-16T19:54:06.598Z,5.30
2023-05-16T19:56:35.568Z,5.10
2023-05-16T19:59:04.655Z,3.70
2023-05-16T20:01:33.563Z,5.00
2023-05-16T20:04:04.940Z,4.50
2023-05-16T20:06:34.135Z,4.90
2023-05-16T20:09:03.162Z,5.50
2023-05-16T20:11:32.091Z,4.40
2023-05-16T20:14:00.981Z,4.80
2023-05-16T20:16:29.971Z,4.80
2023-05-16T20:18:59.326Z,5.90
2023-05-16T20:21:28.564Z,5.20
2023-05-16T20:23:57.513Z,5.20
2023-05-16T20:26:26.636Z,5.10
2023-05-16T20:28:55.680Z,4.80
2023-05-16T20:31:24.710Z,5.40
2023-05-16T20:33:53.607Z,4.90
2023-05-16T20:36:22.705Z,5.30
2023-05-16T20:38:51.831Z,7.20
2023-05-16T20:41:21.403Z,5.40
2023-05-16T20:43:50.714Z,4.10
2023-05-16T20:46:19.730Z,5.10
2023-05-16T20:48:48.686Z,6.10
2023-05-16T20:51:17.877Z,4.70
2023-05-16T20:53:47.002Z,4.80
2023-05-16T20:56:15.802Z,7.60
2023-05-16T20:58:45.015Z,4.90
2023-05-16T21:01:13.898Z,4.90
2023-05-16T21:03:42.975Z,5.40
2023-05-16T21:06:12.110Z,5.70
2023-05-16T21:08:42.686Z,4.70
2023-05-16T21:11:11.812Z,5.20
2023-05-16T21:13:41.212Z,4.40
2023-05-16T21:16:11.954Z,6.00
2023-05-16T21:18:41.171Z,4.70
2023-05-16T21:21:10.526Z,5.60
2023-05-16T21:23:39.551Z,6.10
2023-05-16T21:26:08.782Z,4.90
2023-05-16T21:28:45.934Z,5.10
2023-05-16T21:31:23.299Z,5.20
2023-05-16T21:33:52.799Z,5.40
2023-05-16T21:36:22.759Z,3.90
2023-05-16T21:38:51.663Z,5.30
2023-05-16T21:41:21.825Z,5.60
2023-05-16T21:43:50.921Z,6.00
2023-05-16T21:46:20.479Z,5.40
2023-05-16T21:48:49.791Z,6.10
2023-05-16T21:51:19.250Z,3.70
2023-05-16T21:53:48.242Z,5.00
2023-05-16T21:56:18.251Z,4.80
2023-05-16T21:58:47.529Z,4.60
2023-05-16T22:01:16.821Z,5.60
2023-05-16T22:03:46.946Z,5.20
2023-05-16T22:06:16.062Z,4.50
2023-05-16T22:08:45.357Z,5.20
2023-05-16T22:11:14.613Z,6.40
2023-05-16T22:13:43.814Z,5.20
2023-05-16T22:16:12.990Z,5.20
2023-05-16T22:18:42.308Z,5.00
2023-05-16T22:21:11.755Z,7.20
2023-05-16T22:23:40.817Z,4.70
2023-05-16T22:26:10.008Z,4.40
2023-05-16T22:28:39.051Z,4.60
2023-05-16T22:31:08.190Z,4.50
2023-05-16T22:33:37.375Z,5.30
2023-05-16T22:36:07.673Z,4.60
2023-05-16T22:38:36.719Z,5.40
2023-05-16T22:41:06.198Z,5.30
2023-05-16T22:43:35.299Z,4.80
2023-05-16T22:46:04.470Z,4.50
2023-05-16T22:48:33.609Z,5.20
2023-05-16T22:51:02.880Z,5.10
2023-05-16T22:53:31.932Z,4.80
2023-05-16T22:56:01.180Z,4.60
2023-05-16T22:58:30.423Z,6.10
2023-05-16T23:01:00.825Z,5.70
2023-05-16T23:03:30.303Z,4.70
2023-05-16T23:05:59.443Z,4.20
2023-05-16T23:08:28.990Z,5.20
2023-05-16T23:10:58.216Z,3.70
2023-05-16T23:13:27.483Z,5.20
2023-05-16T23:15:56.738Z,4.90
2023-05-16T23:18:25.996Z,3.60
2023-05-16T23:20:55.101Z,4.80
2023-05-16T23:23:24.353Z,5.90
2023-05-16T23:25:53.570Z,5.40
2023-05-16T23:28:22.719Z,5.20
2023-05-16T23:30:51.981Z,6.10
2023-05-16T23:33:21.113Z,5.00
2023-05-16T23:35:50.218Z,4.80
2023-05-16T23:38:21.348Z,4.40
2023-05-16T23:40:50.434Z,4.50
2023-05-16T23:43:19.535Z,5.90
2023-05-16T23:45:48.596Z,4.20
2023-05-16T23:48:17.621Z,6.80
2023-05-16T23:50:46.750Z,6.20
2023-05-16T23:53:16.070Z,5.10
2023-05-16T23:55:45.465Z,5.70
2023-05-16T23:58:14.559Z,5.60
